createdAt,value
2018-09-13T00:00:09.529Z,0.0
2018-09-13T00:01:25.800Z,0.0
2018-09-13T00:02:10.759Z,0.0
2018-09-13T00:03:11.597Z,0.0
2018-09-13T00:04:09.528Z,0.0
2018-09-13T00:05:09.543Z,0.0
2018-09-13T00:06:09.544Z,0.0
2018-09-13T00:08:09.673Z,0.0
2018-09-13T00:09:09.508Z,0.0
2018-09-13T00:10:09.495Z,0.0
2018-09-13T00:11:09.525Z,0.0
2018-09-13T00:12:11.165Z,0.0
2018-09-13T00:13:09.538Z,0.0
2018-09-13T00:14:09.548Z,0.0
2018-09-13T00:15:09.549Z,0.0
2018-09-13T00:16:09.542Z,0.0
2018-09-13T00:17:09.600Z,0.0
2018-09-13T00:18:09.567Z,0.0
2018-09-13T00:19:10.010Z,0.0
2018-09-13T00:20:10.318Z,0.0
2018-09-13T00:21:09.608Z,0.0
2018-09-13T00:22:10.132Z,0.0
2018-09-13T00:23:10.234Z,0.0
2018-09-13T00:24:09.575Z,0.0
2018-09-13T00:25:09.586Z,0.0
2018-09-13T00:26:09.667Z,0.0
2018-09-13T00:27:09.633Z,0.0
2018-09-13T00:28:09.544Z,0.0
2018-09-13T00:29:09.673Z,0.0
2018-09-13T00:30:09.572Z,0.0
2018-09-13T00:31:09.885Z,0.0
2018-09-13T00:32:09.618Z,0.0
2018-09-13T00:33:09.952Z,0.0
2018-09-13T00:34:15.737Z,0.0
2018-09-13T00:35:14.450Z,0.0
2018-09-13T00:36:12.923Z,0.0
2018-09-13T00:37:10.615Z,0.0
2018-09-13T00:38:12.866Z,0.0
2018-09-13T00:39:18.345Z,0.0
2018-09-13T00:40:18.809Z,0.0
2018-09-13T00:41:26.622Z,0.0
2018-09-13T00:42:19.455Z,0.0
2018-09-13T00:43:18.019Z,0.0
2018-09-13T00:46:08.320Z,0.0
2018-09-13T00:46:28.613Z,0.0
2018-09-13T00:47:23.252Z,0.0
2018-09-13T00:48:30.563Z,0.0
2018-09-13T00:50:31.408Z,0.0
2018-09-13T00:51:31.170Z,0.0
2018-09-13T00:52:31.165Z,0.0
2018-09-13T00:53:31.661Z,0.0
2018-09-13T00:54:31.907Z,0.0
2018-09-13T00:55:30.960Z,0.0
2018-09-13T00:56:31.226Z,0.0
2018-09-13T00:57:31.165Z,0.0
2018-09-13T00:58:32.065Z,0.0
2018-09-13T00:59:31.182Z,0.0
2018-09-13T01:00:33.283Z,0.0
2018-09-13T01:01:32.799Z,0.0
2018-09-13T01:02:31.974Z,0.0
2018-09-13T01:03:31.865Z,0.0
2018-09-13T01:04:31.733Z,0.0
2018-09-13T01:05:31.272Z,0.0
2018-09-13T01:06:32.519Z,0.0
2018-09-13T01:07:30.997Z,0.0
2018-09-13T01:08:31.127Z,0.0
2018-09-13T01:10:30.908Z,0.0
2018-09-13T01:11:30.941Z,0.0
2018-09-13T01:12:30.980Z,0.0
2018-09-13T01:13:31.095Z,0.0
2018-09-13T01:14:31.055Z,0.0
2018-09-13T01:15:30.979Z,0.0
2018-09-13T01:16:31.435Z,0.0
2018-09-13T01:17:31.191Z,0.0
2018-09-13T01:18:31.208Z,0.0
2018-09-13T01:19:31.173Z,0.0
2018-09-13T01:20:49.787Z,0.0
2018-09-13T01:21:32.331Z,0.0
2018-09-13T01:22:32.243Z,0.0
2018-09-13T01:23:33.973Z,0.0
2018-09-13T01:24:33.711Z,0.0
2018-09-13T01:25:33.093Z,0.0
2018-09-13T01:26:32.575Z,0.0
2018-09-13T01:27:31.748Z,0.0
2018-09-13T01:28:33.220Z,0.0
2018-09-13T01:29:45.055Z,0.0
2018-09-13T01:30:39.537Z,0.0
2018-09-13T01:31:35.319Z,0.0
2018-09-13T01:32:36.073Z,0.0
2018-09-13T01:33:32.491Z,0.0
2018-09-13T01:35:35.751Z,0.0
2018-09-13T01:36:35.224Z,0.0
2018-09-13T01:37:34.271Z,0.0
2018-09-13T01:38:33.167Z,0.0
2018-09-13T01:39:34.744Z,0.0
2018-09-13T01:40:59.378Z,0.0
2018-09-13T01:41:39.688Z,0.0
2018-09-13T01:42:35.048Z,0.0
2018-09-13T01:43:35.510Z,0.0
2018-09-13T01:45:39.830Z,0.0
2018-09-13T01:46:36.324Z,0.0
2018-09-13T01:47:40.153Z,0.0
2018-09-13T01:49:32.279Z,1.3
2018-09-13T01:51:36.873Z,4.1
2018-09-13T01:52:47.476Z,4.1
2018-09-13T01:53:31.189Z,1.9
2018-09-13T01:55:42.627Z,6.1
2018-09-13T01:56:59.587Z,6.1
2018-09-13T01:57:32.698Z,6.1
2018-09-13T01:59:39.254Z,0.5
2018-09-13T02:00:32.421Z,1.9
2018-09-13T02:01:34.250Z,1.9
2018-09-13T02:02:31.040Z,1.9
2018-09-13T02:03:30.983Z,0.0
2018-09-13T02:04:31.048Z,0.0
2018-09-13T02:05:31.135Z,2.5
2018-09-13T02:06:31.078Z,2.5
2018-09-13T02:07:31.166Z,2.5
2018-09-13T02:08:31.025Z,0.0
2018-09-13T02:09:32.297Z,0.0
2018-09-13T02:10:31.565Z,0.0
2018-09-13T02:11:33.877Z,0.0
2018-09-13T02:12:31.919Z,0.0
2018-09-13T02:13:31.403Z,0.0
2018-09-13T02:14:37.032Z,0.0
2018-09-13T02:15:47.371Z,0.0
2018-09-13T02:16:43.358Z,0.0
2018-09-13T02:17:40.443Z,0.0
2018-09-13T02:18:37.450Z,0.0
2018-09-13T02:19:33.822Z,0.0
2018-09-13T02:20:34.445Z,0.0
2018-09-13T02:21:32.115Z,0.0
2018-09-13T02:22:33.962Z,0.0
2018-09-13T02:24:37.063Z,0.0
2018-09-13T02:25:34.549Z,0.0
2018-09-13T02:26:37.771Z,0.0
2018-09-13T02:27:38.754Z,0.0
2018-09-13T02:28:40.597Z,0.0
2018-09-13T02:29:42.227Z,0.0
2018-09-13T02:30:47.084Z,0.0
2018-09-13T02:31:43.024Z,1.1
2018-09-13T02:32:35.860Z,1.1
2018-09-13T02:33:42.603Z,0.2
2018-09-13T02:35:31.592Z,0.2
2018-09-13T02:36:32.779Z,0.0
2018-09-13T02:37:32.406Z,0.0
2018-09-13T02:48:40.949Z,0.0
2018-09-13T02:49:39.985Z,0.0
2018-09-13T02:50:40.090Z,0.0
2018-09-13T02:51:40.114Z,0.0
2018-09-13T02:52:40.131Z,0.0
2018-09-13T02:53:42.046Z,0.0
2018-09-13T02:54:40.207Z,0.0
2018-09-13T02:55:40.135Z,0.0
2018-09-13T02:57:41.158Z,0.0
2018-09-13T02:58:41.922Z,0.0
2018-09-13T02:59:41.246Z,0.0
2018-09-13T03:00:40.450Z,0.0
2018-09-13T03:01:40.991Z,0.0
2018-09-13T03:02:41.707Z,0.0
2018-09-13T03:04:40.672Z,0.0
2018-09-13T03:06:42.044Z,0.0
2018-09-13T03:07:41.045Z,0.0
2018-09-13T03:09:33.155Z,0.0
2018-09-13T03:09:41.937Z,0.0
2018-09-13T03:10:43.472Z,0.0
2018-09-13T03:11:43.617Z,0.0
2018-09-13T03:12:43.186Z,0.0
2018-09-13T03:13:41.848Z,0.0
2018-09-13T03:14:41.700Z,0.0
2018-09-13T03:15:41.665Z,0.0
2018-09-13T03:17:41.671Z,0.0
2018-09-13T03:18:41.977Z,0.0
2018-09-13T03:19:42.893Z,0.0
2018-09-13T03:20:42.465Z,0.0
2018-09-13T03:21:41.923Z,0.0
2018-09-13T03:22:44.154Z,0.0
2018-09-13T03:23:45.723Z,0.0
2018-09-13T03:24:47.795Z,0.0
2018-09-13T03:25:50.578Z,0.0
2018-09-13T03:26:43.368Z,0.0
2018-09-13T03:27:47.523Z,0.0
2018-09-13T03:28:43.207Z,0.0
2018-09-13T03:29:44.883Z,0.0
2018-09-13T03:30:41.692Z,0.0
2018-09-13T03:31:41.858Z,0.0
2018-09-13T03:32:42.620Z,0.0
2018-09-13T03:33:41.657Z,0.0
2018-09-13T03:34:42.026Z,0.0
2018-09-13T03:35:41.745Z,0.0
2018-09-13T03:36:42.997Z,0.0
2018-09-13T03:37:42.527Z,0.0
2018-09-13T03:38:41.727Z,0.0
2018-09-13T03:39:41.763Z,0.0
2018-09-13T03:40:41.691Z,0.0
2018-09-13T03:41:41.815Z,0.0
2018-09-13T03:42:41.784Z,0.0
2018-09-13T03:43:42.102Z,0.0
2018-09-13T03:44:41.980Z,0.0
2018-09-13T03:45:41.987Z,0.0
2018-09-13T03:46:41.729Z,0.0
2018-09-13T03:47:41.757Z,0.0
2018-09-13T03:48:42.088Z,0.0
2018-09-13T03:49:44.112Z,0.0
2018-09-13T03:50:42.721Z,0.0
2018-09-13T03:51:41.746Z,0.0
2018-09-13T03:52:42.727Z,0.0
2018-09-13T03:54:58.312Z,0.0
2018-09-13T03:56:43.145Z,0.0
2018-09-13T03:57:41.846Z,0.0
2018-09-13T03:58:43.351Z,0.0
2018-09-13T03:59:43.453Z,0.0
2018-09-13T04:00:42.735Z,0.0
2018-09-13T04:01:45.648Z,0.0
2018-09-13T04:02:49.585Z,0.0
2018-09-13T04:03:41.889Z,0.0
2018-09-13T04:04:48.702Z,0.0
2018-09-13T04:05:41.851Z,0.0
2018-09-13T04:06:45.865Z,0.0
2018-09-13T04:07:42.554Z,0.0
2018-09-13T04:09:42.254Z,0.0
2018-09-13T04:10:42.176Z,0.0
2018-09-13T04:11:43.256Z,0.0
2018-09-13T04:12:44.303Z,0.0
2018-09-13T04:13:44.332Z,0.0
2018-09-13T04:14:44.082Z,0.0
2018-09-13T04:15:42.231Z,0.0
2018-09-13T04:16:43.535Z,0.0
2018-09-13T04:17:43.295Z,0.0
2018-09-13T04:18:43.877Z,0.0
2018-09-13T04:19:46.173Z,0.0
2018-09-13T04:20:43.916Z,0.0
2018-09-13T04:21:44.726Z,0.0
2018-09-13T04:22:43.619Z,0.0
2018-09-13T04:23:44.391Z,0.0
2018-09-13T04:24:48.873Z,0.0
2018-09-13T04:25:44.368Z,0.0
2018-09-13T04:27:46.572Z,0.0
2018-09-13T04:29:41.962Z,0.0
2018-09-13T04:30:44.595Z,0.0
2018-09-13T04:31:42.489Z,0.0
2018-09-13T04:32:43.957Z,0.0
2018-09-13T04:33:47.170Z,0.0
2018-09-13T04:34:43.498Z,0.0
2018-09-13T04:35:42.404Z,0.0
2018-09-13T04:36:42.554Z,0.0
2018-09-13T04:38:12.434Z,0.0
2018-09-13T04:38:46.862Z,0.0
2018-09-13T04:39:42.695Z,0.0
2018-09-13T04:40:42.429Z,0.0
2018-09-13T04:41:42.896Z,0.0
2018-09-13T04:42:41.931Z,0.0
2018-09-13T04:43:42.318Z,0.0
2018-09-13T04:44:41.838Z,0.0
2018-09-13T04:45:41.938Z,3.0
2018-09-13T04:46:42.092Z,3.0
2018-09-13T04:47:43.045Z,3.0
2018-09-13T04:48:41.847Z,0.0
2018-09-13T04:49:41.934Z,0.0
2018-09-13T04:50:41.972Z,0.0
2018-09-13T04:51:42.748Z,0.0
2018-09-13T04:52:42.047Z,0.0
2018-09-13T04:53:41.880Z,0.0
2018-09-13T04:54:42.619Z,0.0
2018-09-13T04:55:41.900Z,0.0
2018-09-13T04:56:44.780Z,0.0
2018-09-13T04:57:43.320Z,0.0
2018-09-13T04:58:49.398Z,0.0
2018-09-13T05:00:44.687Z,0.0
2018-09-13T05:01:45.248Z,0.0
2018-09-13T05:03:42.202Z,0.0
2018-09-13T05:04:49.875Z,0.0
2018-09-13T05:05:42.739Z,0.0
2018-09-13T05:06:54.165Z,0.0
2018-09-13T05:07:53.066Z,0.0
2018-09-13T05:09:56.199Z,0.0
2018-09-13T05:11:01.047Z,0.0
2018-09-13T05:12:44.840Z,0.0
2018-09-13T05:13:49.296Z,0.0
2018-09-13T05:15:47.858Z,0.0
2018-09-13T05:16:55.563Z,0.0
2018-09-13T05:18:42.270Z,0.0
2018-09-13T05:20:52.653Z,0.0
2018-09-13T05:21:48.905Z,0.0
2018-09-13T05:22:43.314Z,0.0
2018-09-13T05:23:44.202Z,0.0
2018-09-13T05:24:45.443Z,0.0
2018-09-13T05:25:45.091Z,0.0
2018-09-13T05:26:44.240Z,0.0
2018-09-13T05:27:45.470Z,0.0
2018-09-13T05:28:45.878Z,0.0
2018-09-13T05:31:47.903Z,0.0
2018-09-13T05:32:43.992Z,0.0
2018-09-13T05:33:42.129Z,0.0
2018-09-13T05:36:51.974Z,0.0
2018-09-13T05:37:53.391Z,0.0
2018-09-13T05:38:52.163Z,0.0
2018-09-13T05:39:52.151Z,0.0
2018-09-13T05:40:53.873Z,0.0
2018-09-13T05:41:55.247Z,0.0
2018-09-13T05:42:52.085Z,0.0
2018-09-13T05:43:52.346Z,0.0
2018-09-13T05:44:52.100Z,0.0
2018-09-13T05:45:52.779Z,0.0
2018-09-13T05:48:05.299Z,0.0
2018-09-13T05:49:07.593Z,0.0
2018-09-13T05:50:07.422Z,0.0
2018-09-13T05:51:06.534Z,0.0
2018-09-13T05:52:05.075Z,0.0
2018-09-13T05:53:05.446Z,0.0
2018-09-13T05:54:07.369Z,0.0
2018-09-13T05:56:06.907Z,0.0
2018-09-13T05:57:05.751Z,0.0
2018-09-13T05:58:05.913Z,0.0
2018-09-13T05:59:07.086Z,0.0
2018-09-13T06:00:07.720Z,0.0
2018-09-13T06:01:08.702Z,0.0
2018-09-13T06:02:08.263Z,0.0
2018-09-13T06:03:13.790Z,0.0
2018-09-13T06:04:25.454Z,0.0
2018-09-13T06:05:14.380Z,0.0
2018-09-13T06:06:05.835Z,0.0
2018-09-13T06:08:09.525Z,0.0
2018-09-13T06:11:08.175Z,0.0
2018-09-13T06:12:05.207Z,0.0
2018-09-13T06:13:07.259Z,0.0
2018-09-13T06:14:17.769Z,0.0
2018-09-13T06:15:07.334Z,0.0
2018-09-13T06:16:05.908Z,0.0
2018-09-13T06:17:06.319Z,0.0
2018-09-13T06:18:05.803Z,0.0
2018-09-13T06:19:06.662Z,0.0
2018-09-13T06:20:06.411Z,0.0
2018-09-13T06:21:05.343Z,0.0
2018-09-13T06:22:05.229Z,0.0
2018-09-13T06:23:09.767Z,0.2
2018-09-13T06:24:05.882Z,0.2
2018-09-13T06:25:06.479Z,0.2
2018-09-13T06:26:05.845Z,0.2
2018-09-13T06:32:15.284Z,0.2
2018-09-13T06:33:14.988Z,0.0
2018-09-13T06:34:17.690Z,0.0
2018-09-13T06:35:17.431Z,0.0
2018-09-13T06:36:15.856Z,0.0
2018-09-13T06:37:15.651Z,0.0
2018-09-13T06:38:16.952Z,0.0
2018-09-13T06:39:15.036Z,0.0
2018-09-13T06:40:16.254Z,0.0
2018-09-13T06:41:15.069Z,0.0
2018-09-13T06:42:15.672Z,0.0
2018-09-13T06:43:16.430Z,0.0
2018-09-13T06:44:14.978Z,0.0
2018-09-13T06:45:15.136Z,0.0
2018-09-13T06:46:15.800Z,0.0
2018-09-13T06:47:15.745Z,0.0
2018-09-13T06:50:20.808Z,0.0
2018-09-13T06:51:21.423Z,0.0
2018-09-13T06:52:20.709Z,0.0
2018-09-13T06:53:21.781Z,0.0
2018-09-13T06:54:21.379Z,0.0
2018-09-13T06:55:20.754Z,0.0
2018-09-13T06:56:22.011Z,0.0
2018-09-13T06:57:20.844Z,0.0
2018-09-13T06:58:21.348Z,0.0
2018-09-13T06:59:21.021Z,0.0
2018-09-13T07:00:22.287Z,0.0
2018-09-13T07:01:21.053Z,0.0
2018-09-13T07:02:20.871Z,0.0
2018-09-13T07:04:20.837Z,0.0
2018-09-13T07:05:20.802Z,0.0
2018-09-13T07:06:21.293Z,0.0
2018-09-13T07:07:22.973Z,0.0
2018-09-13T07:08:36.860Z,0.0
2018-09-13T07:09:20.886Z,0.0
2018-09-13T07:10:20.804Z,0.0
2018-09-13T07:11:22.084Z,0.0
2018-09-13T07:12:20.893Z,0.0
2018-09-13T07:13:24.842Z,0.0
2018-09-13T07:14:21.114Z,0.0
2018-09-13T07:15:20.832Z,0.0
2018-09-13T07:16:20.845Z,0.0
2018-09-13T07:17:22.620Z,0.0
2018-09-13T07:18:20.707Z,0.0
2018-09-13T07:19:21.486Z,0.0
2018-09-13T07:20:20.768Z,0.0
2018-09-13T07:21:22.608Z,0.0
2018-09-13T07:22:23.470Z,0.0
2018-09-13T07:23:20.868Z,0.0
2018-09-13T07:24:20.850Z,0.0
2018-09-13T07:25:21.492Z,0.0
2018-09-13T07:26:23.456Z,0.0
2018-09-13T07:27:21.724Z,0.0
2018-09-13T07:29:25.750Z,0.0
2018-09-13T07:30:21.772Z,0.0
2018-09-13T07:31:20.773Z,0.0
2018-09-13T07:32:21.971Z,0.0
2018-09-13T07:33:20.917Z,0.0
2018-09-13T07:34:22.011Z,0.0
2018-09-13T07:36:20.797Z,0.0
2018-09-13T07:37:21.841Z,0.0
2018-09-13T07:38:20.803Z,0.0
2018-09-13T07:39:21.443Z,0.0
2018-09-13T07:40:20.784Z,0.0
2018-09-13T07:41:21.616Z,0.0
2018-09-13T07:44:22.496Z,0.0
2018-09-13T07:45:22.354Z,0.0
2018-09-13T07:46:22.322Z,0.0
2018-09-13T07:47:21.542Z,0.0
2018-09-13T07:48:20.799Z,0.0
2018-09-13T07:49:21.520Z,0.0
2018-09-13T07:51:21.822Z,0.0
2018-09-13T07:52:21.873Z,0.0
2018-09-13T07:54:23.457Z,0.0
2018-09-13T07:55:21.549Z,0.0
2018-09-13T07:56:21.512Z,0.0
2018-09-13T07:57:21.168Z,0.0
2018-09-13T07:58:21.132Z,0.0
2018-09-13T07:59:20.800Z,0.0
2018-09-13T08:01:21.998Z,0.0
2018-09-13T08:03:20.911Z,0.0
2018-09-13T08:04:21.088Z,0.0
2018-09-13T08:05:22.224Z,0.0
2018-09-13T08:06:22.941Z,0.0
2018-09-13T08:07:21.191Z,0.0
2018-09-13T08:08:23.929Z,0.0
2018-09-13T08:09:22.314Z,0.0
2018-09-13T08:10:23.130Z,0.0
2018-09-13T08:11:21.524Z,0.0
2018-09-13T08:12:20.929Z,0.0
2018-09-13T08:13:30.630Z,0.0
2018-09-13T08:14:24.059Z,0.0
2018-09-13T08:15:21.016Z,0.0
2018-09-13T08:16:38.398Z,0.0
2018-09-13T08:18:21.811Z,0.0
2018-09-13T08:19:22.394Z,0.0
2018-09-13T08:20:21.127Z,0.0
2018-09-13T08:21:21.261Z,0.0
2018-09-13T08:22:21.173Z,0.0
2018-09-13T08:23:21.388Z,0.0
2018-09-13T08:24:21.247Z,0.0
2018-09-13T08:25:20.898Z,0.0
2018-09-13T08:26:21.248Z,0.0
2018-09-13T08:27:22.845Z,0.0
2018-09-13T08:28:20.863Z,0.0
2018-09-13T08:29:21.021Z,0.0
2018-09-13T08:32:21.498Z,0.0
2018-09-13T08:33:21.502Z,0.0
2018-09-13T08:34:20.921Z,0.0
2018-09-13T08:38:40.334Z,0.0
2018-09-13T08:38:54.532Z,0.0
2018-09-13T08:39:55.512Z,0.0
2018-09-13T08:42:57.149Z,0.0
2018-09-13T08:43:57.492Z,0.0
2018-09-13T08:45:55.691Z,0.0
2018-09-13T08:46:56.601Z,0.0
2018-09-13T08:47:57.227Z,0.0
2018-09-13T08:48:57.373Z,0.0
2018-09-13T08:50:55.278Z,0.0
2018-09-13T08:51:56.395Z,0.0
2018-09-13T08:52:57.087Z,0.0
2018-09-13T08:53:58.011Z,0.0
2018-09-13T08:54:56.881Z,0.0
2018-09-13T08:55:57.234Z,0.0
2018-09-13T08:56:57.220Z,0.0
2018-09-13T08:57:56.213Z,0.0
2018-09-13T08:58:56.515Z,0.0
2018-09-13T08:59:55.338Z,0.0
2018-09-13T09:00:56.913Z,0.0
2018-09-13T09:01:56.232Z,0.0
2018-09-13T09:02:57.529Z,0.0
2018-09-13T09:03:57.549Z,0.0
2018-09-13T09:04:58.362Z,0.0
2018-09-13T09:05:55.598Z,0.0
2018-09-13T09:06:56.214Z,0.0
2018-09-13T09:07:56.236Z,0.0
2018-09-13T09:08:57.524Z,0.0
2018-09-13T09:09:56.576Z,0.0
2018-09-13T09:10:55.821Z,0.0
2018-09-13T09:11:56.662Z,0.0
2018-09-13T09:12:57.618Z,0.0
2018-09-13T09:14:56.149Z,0.0
2018-09-13T09:15:58.275Z,0.0
2018-09-13T09:16:55.209Z,0.0
2018-09-13T09:17:57.234Z,0.0
2018-09-13T09:18:57.127Z,0.0
2018-09-13T09:20:57.800Z,0.0
2018-09-13T09:22:57.605Z,0.0
2018-09-13T09:23:55.964Z,0.0
2018-09-13T09:25:55.498Z,0.0
2018-09-13T09:26:57.381Z,0.0
2018-09-13T09:27:59.343Z,0.0
2018-09-13T09:28:56.865Z,0.0
2018-09-13T09:29:55.952Z,0.0
2018-09-13T09:30:55.713Z,0.0
2018-09-13T09:31:56.489Z,0.0
2018-09-13T09:32:55.407Z,0.0
2018-09-13T09:33:56.124Z,0.0
2018-09-13T09:34:56.658Z,0.0
2018-09-13T09:35:57.108Z,0.0
2018-09-13T09:36:58.336Z,0.0
2018-09-13T09:37:57.182Z,0.0
2018-09-13T09:38:57.733Z,0.0
2018-09-13T09:39:58.010Z,0.0
2018-09-13T09:40:57.500Z,0.0
2018-09-13T09:41:56.980Z,0.0
2018-09-13T09:42:58.127Z,0.0
2018-09-13T09:43:57.487Z,0.0
2018-09-13T09:45:56.308Z,0.0
2018-09-13T09:48:00.546Z,0.0
2018-09-13T09:48:59.882Z,0.0
2018-09-13T09:49:57.460Z,0.0
2018-09-13T09:50:58.039Z,0.0
2018-09-13T09:51:59.533Z,0.0
2018-09-13T09:53:57.503Z,0.0
2018-09-13T09:54:58.257Z,0.0
2018-09-13T09:55:58.086Z,0.0
2018-09-13T09:56:56.780Z,0.0
2018-09-13T09:57:57.112Z,0.0
2018-09-13T09:58:58.541Z,0.0
2018-09-13T09:59:58.734Z,0.0
2018-09-13T10:00:58.335Z,0.0
2018-09-13T10:01:55.341Z,0.0
2018-09-13T10:02:55.465Z,0.0
2018-09-13T10:03:56.194Z,0.0
2018-09-13T10:04:57.287Z,0.0
2018-09-13T10:06:57.985Z,0.0
2018-09-13T10:08:01.140Z,0.0
2018-09-13T10:08:56.937Z,0.0
2018-09-13T10:09:57.349Z,0.0
2018-09-13T10:10:55.360Z,0.0
2018-09-13T10:12:57.225Z,0.0
2018-09-13T10:13:55.338Z,1.6
2018-09-13T10:14:55.616Z,1.6
2018-09-13T10:15:57.996Z,1.6
2018-09-13T10:16:55.412Z,1.3
2018-09-13T10:17:57.547Z,1.3
2018-09-13T10:18:55.678Z,1.9
2018-09-13T10:19:56.075Z,1.9
2018-09-13T10:20:55.320Z,1.9
2018-09-13T10:21:55.460Z,1.3
2018-09-13T10:22:55.536Z,1.3
2018-09-13T10:23:57.529Z,1.3
2018-09-13T10:24:55.456Z,1.3
2018-09-13T10:25:55.404Z,1.3
2018-09-13T10:26:56.847Z,1.6
2018-09-13T10:29:56.875Z,0.0
2018-09-13T10:31:55.652Z,2.5
2018-09-13T10:33:57.577Z,0.8
2018-09-13T10:35:55.774Z,0.8
2018-09-13T10:37:07.903Z,0.0
2018-09-13T10:37:56.065Z,0.0
2018-09-13T10:38:55.491Z,1.6
2018-09-13T10:39:58.303Z,1.6
2018-09-13T10:40:56.074Z,1.6
2018-09-13T10:41:57.362Z,2.7
2018-09-13T10:42:55.597Z,2.7
2018-09-13T10:43:55.457Z,0.8
2018-09-13T10:44:57.871Z,0.8
2018-09-13T10:45:56.547Z,0.8
2018-09-13T10:46:55.946Z,0.0
2018-09-13T10:47:56.928Z,0.0
2018-09-13T10:48:55.523Z,0.0
2018-09-13T10:50:55.347Z,0.5
2018-09-13T10:52:55.375Z,1.6
2018-09-13T10:53:55.400Z,1.6
2018-09-13T10:54:56.460Z,1.1
2018-09-13T10:56:07.065Z,1.1
2018-09-13T10:57:57.924Z,0.8
2018-09-13T10:58:56.330Z,0.8
2018-09-13T10:59:56.097Z,0.0
2018-09-13T11:00:58.304Z,0.0
2018-09-13T11:02:55.437Z,2.7
2018-09-13T11:03:59.800Z,2.7
2018-09-13T11:05:06.377Z,2.7
2018-09-13T11:05:55.910Z,2.7
2018-09-13T11:07:01.348Z,2.2
2018-09-13T11:07:55.684Z,2.2
2018-09-13T11:09:00.038Z,2.2
2018-09-13T11:10:00.229Z,0.0
2018-09-13T11:12:00.386Z,0.0
2018-09-13T11:13:59.438Z,0.0
2018-09-13T11:15:09.328Z,0.0
2018-09-13T11:15:58.842Z,0.0
2018-09-13T11:16:58.825Z,0.0
2018-09-13T11:17:57.601Z,0.0
2018-09-13T11:19:02.610Z,0.0
2018-09-13T11:19:58.201Z,0.0
2018-09-13T11:20:59.081Z,0.0
2018-09-13T11:22:01.336Z,0.0
2018-09-13T11:23:01.122Z,0.0
2018-09-13T11:24:12.889Z,0.0
2018-09-13T11:24:57.562Z,0.0
2018-09-13T11:25:56.571Z,0.0
2018-09-13T11:26:57.789Z,0.0
2018-09-13T11:27:56.847Z,5.5
2018-09-13T11:28:57.502Z,5.5
2018-09-13T11:30:09.738Z,1.9
2018-09-13T11:30:55.671Z,1.9
2018-09-13T11:31:58.724Z,1.9
2018-09-13T11:32:59.602Z,1.1
2018-09-13T11:34:11.085Z,1.1
2018-09-13T11:34:57.709Z,0.0
2018-09-13T11:36:11.839Z,0.0
2018-09-13T11:37:12.276Z,0.0
2018-09-13T11:38:02.321Z,0.2
2018-09-13T11:38:57.867Z,0.2
2018-09-13T11:39:55.759Z,2.5
2018-09-13T11:40:57.362Z,2.5
2018-09-13T11:46:53.041Z,2.5
2018-09-13T11:47:04.119Z,2.5
2018-09-13T11:48:04.817Z,3.8
2018-09-13T11:49:04.029Z,3.8
2018-09-13T11:50:04.569Z,3.0
2018-09-13T11:51:02.799Z,3.0
2018-09-13T11:52:04.105Z,3.0
2018-09-13T11:53:05.379Z,1.6
2018-09-13T11:54:08.705Z,1.6
2018-09-13T11:55:05.400Z,1.6
2018-09-13T11:56:03.005Z,1.3
2018-09-13T11:57:05.143Z,1.3
2018-09-13T11:58:03.324Z,3.6
2018-09-13T11:59:02.672Z,3.6
2018-09-13T12:01:03.721Z,0.0
2018-09-13T12:02:05.892Z,0.0
2018-09-13T12:03:03.287Z,3.0
2018-09-13T12:04:03.889Z,3.0
2018-09-13T12:05:05.589Z,3.0
2018-09-13T12:06:05.841Z,1.3
2018-09-13T12:07:03.426Z,1.3
2018-09-13T12:10:08.082Z,0.2
2018-09-13T12:11:03.893Z,1.6
2018-09-13T12:12:05.172Z,1.6
2018-09-13T12:13:04.220Z,2.2
2018-09-13T12:14:05.440Z,2.2
2018-09-13T12:17:02.743Z,3.6
2018-09-13T12:18:03.454Z,5.5
2018-09-13T12:19:04.890Z,5.5
2018-09-13T12:20:04.138Z,5.5
2018-09-13T12:22:04.081Z,6.3
2018-09-13T12:23:04.369Z,4.7
2018-09-13T12:24:05.078Z,4.7
2018-09-13T12:25:02.768Z,4.7
2018-09-13T12:27:15.586Z,4.7
2018-09-13T12:28:16.269Z,0.5
2018-09-13T12:29:19.425Z,0.5
2018-09-13T12:30:16.653Z,0.5
2018-09-13T12:31:15.656Z,0.0
2018-09-13T12:32:16.950Z,0.0
2018-09-13T12:33:16.194Z,3.8
2018-09-13T12:34:16.376Z,3.8
2018-09-13T12:35:15.592Z,3.8
2018-09-13T12:36:15.590Z,3.0
2018-09-13T12:38:08.057Z,3.0
2018-09-13T12:38:19.937Z,3.0
2018-09-13T12:41:16.669Z,7.5
2018-09-13T12:42:16.875Z,7.5
2018-09-13T12:43:17.235Z,7.5
2018-09-13T12:44:18.207Z,7.5
2018-09-13T12:45:17.329Z,7.5
2018-09-13T12:46:17.843Z,3.6
2018-09-13T12:47:18.704Z,3.6
2018-09-13T12:48:19.054Z,3.6
2018-09-13T12:49:17.922Z,6.1
2018-09-13T12:50:16.874Z,6.1
2018-09-13T12:51:16.612Z,0.0
2018-09-13T12:52:18.031Z,0.0
2018-09-13T12:53:17.157Z,0.0
2018-09-13T12:54:17.883Z,1.6
2018-09-13T12:55:17.850Z,1.6
2018-09-13T12:57:25.324Z,3.6
2018-09-13T12:58:40.726Z,6.1
2018-09-13T12:59:40.769Z,6.1
2018-09-13T13:00:41.091Z,6.1
2018-09-13T13:01:40.802Z,0.2
2018-09-13T13:02:43.193Z,0.2
2018-09-13T13:03:41.813Z,0.2
2018-09-13T13:04:40.037Z,0.0
2018-09-13T13:05:40.121Z,0.0
2018-09-13T13:06:40.237Z,0.0
2018-09-13T13:08:53.911Z,5.8
2018-09-13T13:09:53.184Z,5.8
2018-09-13T13:10:53.292Z,5.8
2018-09-13T13:11:53.471Z,3.6
2018-09-13T13:12:53.260Z,3.6
2018-09-13T13:13:53.232Z,6.1
2018-09-13T13:14:54.020Z,6.1
2018-09-13T13:15:54.540Z,6.1
2018-09-13T13:16:54.324Z,5.2
2018-09-13T13:19:03.307Z,5.2
2018-09-13T13:19:54.085Z,3.8
2018-09-13T13:20:53.240Z,3.8
2018-09-13T13:21:53.437Z,28.3
2018-09-13T13:22:55.562Z,28.3
2018-09-13T13:23:54.572Z,28.3
2018-09-13T13:24:57.268Z,5.2
2018-09-13T13:25:53.791Z,5.2
2018-09-13T13:26:53.981Z,5.0
2018-09-13T13:27:55.154Z,5.0
2018-09-13T13:28:57.412Z,5.0
2018-09-13T13:29:53.252Z,5.0
2018-09-13T13:30:53.214Z,5.0
2018-09-13T13:31:55.169Z,3.3
2018-09-13T13:32:54.429Z,3.3
2018-09-13T13:33:54.250Z,3.3
2018-09-13T13:34:53.272Z,1.3
2018-09-13T13:35:53.128Z,1.3
2018-09-13T13:36:53.217Z,2.7
2018-09-13T13:37:53.319Z,2.7
2018-09-13T13:38:54.765Z,2.7
2018-09-13T13:39:54.044Z,25.8
2018-09-13T13:40:53.221Z,25.8
2018-09-13T13:41:53.322Z,3.0
2018-09-13T13:42:57.932Z,3.0
2018-09-13T13:44:00.800Z,3.0
2018-09-13T13:44:53.247Z,2.2
2018-09-13T13:45:54.260Z,2.2
2018-09-13T13:46:55.011Z,2.2
2018-09-13T13:47:53.923Z,2.2
2018-09-13T13:48:54.031Z,2.2
2018-09-13T13:49:54.556Z,2.5
2018-09-13T13:51:53.773Z,2.5
2018-09-13T13:53:53.126Z,6.6
2018-09-13T13:54:53.352Z,7.2
2018-09-13T13:55:53.441Z,7.2
2018-09-13T13:56:54.124Z,7.2
2018-09-13T13:57:53.191Z,4.7
2018-09-13T13:58:53.240Z,4.7
2018-09-13T13:59:54.713Z,4.4
2018-09-13T14:00:53.802Z,4.4
2018-09-13T14:01:53.214Z,4.4
2018-09-13T14:02:53.252Z,0.2
2018-09-13T14:03:53.260Z,0.2
2018-09-13T14:04:53.245Z,3.8
2018-09-13T14:05:53.285Z,3.8
2018-09-13T14:09:04.439Z,3.8
2018-09-13T14:10:04.848Z,28.3
2018-09-13T14:11:07.670Z,28.3
2018-09-13T14:13:02.247Z,5.2
2018-09-13T14:14:02.507Z,5.2
2018-09-13T14:15:04.123Z,7.5
2018-09-13T14:17:02.912Z,7.5
2018-09-13T14:18:01.346Z,2.2
2018-09-13T14:19:03.490Z,2.2
2018-09-13T14:20:01.394Z,5.8
2018-09-13T14:21:01.383Z,5.8
2018-09-13T14:22:07.777Z,5.8
2018-09-13T14:23:01.413Z,2.2
2018-09-13T14:24:01.360Z,2.2
2018-09-13T14:25:04.756Z,2.2
2018-09-13T14:26:03.730Z,0.2
2018-09-13T14:27:02.032Z,0.2
2018-09-13T14:28:01.635Z,0.2
2018-09-13T14:29:01.329Z,0.2
2018-09-13T14:30:01.380Z,0.2
2018-09-13T14:32:01.470Z,7.5
2018-09-13T14:33:01.665Z,7.5
2018-09-13T14:34:01.517Z,7.5
2018-09-13T14:35:01.636Z,7.5
2018-09-13T14:36:01.387Z,6.9
2018-09-13T14:37:01.661Z,6.9
2018-09-13T14:38:01.554Z,4.7
2018-09-13T14:39:03.665Z,4.7
2018-09-13T14:40:01.491Z,4.7
2018-09-13T14:41:01.418Z,4.7
2018-09-13T14:42:01.421Z,4.7
2018-09-13T14:43:01.459Z,2.7
2018-09-13T14:44:01.727Z,2.7
2018-09-13T14:45:02.259Z,2.7
2018-09-13T14:46:01.461Z,1.9
2018-09-13T14:47:01.645Z,1.9
2018-09-13T14:48:01.488Z,3.6
2018-09-13T15:00:02.115Z,15.8
2018-09-13T15:01:02.161Z,6.1
2018-09-13T15:02:02.232Z,6.1
2018-09-13T15:03:02.230Z,6.1
2018-09-13T15:04:02.438Z,5.2
2018-09-13T15:05:02.218Z,5.2
2018-09-13T15:06:02.203Z,5.0
2018-09-13T15:07:02.626Z,5.0
2018-09-13T15:08:02.456Z,5.0
2018-09-13T15:09:02.543Z,5.0
2018-09-13T15:10:22.369Z,5.0
2018-09-13T15:11:02.261Z,5.8
2018-09-13T15:12:02.227Z,5.8
2018-09-13T15:13:02.479Z,5.8
2018-09-13T15:14:02.263Z,5.8
2018-09-13T15:15:02.329Z,5.8
2018-09-13T15:16:02.194Z,5.2
2018-09-13T15:17:02.505Z,5.2
2018-09-13T15:18:02.295Z,5.2
2018-09-13T15:19:02.186Z,6.1
2018-09-13T15:20:04.668Z,6.1
2018-09-13T15:21:02.118Z,26.3
2018-09-13T15:22:02.802Z,26.3
2018-09-13T15:23:04.185Z,26.3
2018-09-13T15:24:03.105Z,3.0
2018-09-13T15:25:02.231Z,3.0
2018-09-13T15:26:02.553Z,3.0
2018-09-13T15:27:02.395Z,4.4
2018-09-13T15:28:02.254Z,4.4
2018-09-13T15:29:02.274Z,5.5
2018-09-13T15:30:02.547Z,5.5
2018-09-13T15:32:14.720Z,1.6
2018-09-13T15:34:14.799Z,6.1
2018-09-13T15:35:14.757Z,6.1
2018-09-13T15:36:15.045Z,7.7
2018-09-13T15:37:14.824Z,7.7
2018-09-13T15:38:16.400Z,7.7
2018-09-13T15:39:15.046Z,6.1
2018-09-13T15:40:16.773Z,6.1
2018-09-13T15:41:15.313Z,6.1
2018-09-13T15:42:15.899Z,8.0
2018-09-13T15:43:14.879Z,8.0
2018-09-13T15:44:15.182Z,8.6
2018-09-13T15:45:16.212Z,8.6
2018-09-13T15:46:14.763Z,8.6
2018-09-13T15:47:14.753Z,6.6
2018-09-13T15:48:15.162Z,6.6
2018-09-13T15:49:14.733Z,6.6
2018-09-13T15:50:15.383Z,6.6
2018-09-13T15:51:14.829Z,6.6
2018-09-13T15:52:26.149Z,4.4
2018-09-13T15:53:15.207Z,4.4
2018-09-13T15:54:15.527Z,4.7
2018-09-13T15:55:15.120Z,4.7
2018-09-13T15:56:15.082Z,4.7